EPMO

Details ICAO EPMO (WMI)
Name MODLIN
Region Poland
Timezone Europe/Warsaw (UTC+2.0)
Plans Departing 153
Arriving 144
Stats Elevation 341 ft / 104 m (AMSL)
Location 52.451110° 20.651778°
Runways 1
Magnetic Variation 5.822° E
Sunrise 2018-05-21 02:34:37 UTC / 2018-05-21 04:34:37 Local
Sunset 2018-05-21 18:36:11 UTC / 2018-05-21 20:36:11 Local
Advertisement - Login to hide

Runways

ID Width Length Bearing (true) Bearing (mag) Surface Threshold Offset Overrun Length
08 197 ft / 60 m 8,188 ft / 2,496 m 81.96° 76.14° Asphalt 0 ft / 0 m 0 ft / 0 m
26 197 ft / 60 m 8,188 ft / 2,496 m 261.99° 256.17° Asphalt 0 ft / 0 m 0 ft / 0 m

Map

Weather


0- 5 10 15 20 25 30 35+ Temperature / ° C

Clouds and Precipitation
Forecast for 2018-05-21 18:00 UTC. Updated 5 hours ago

Ground ~20,000 ft ~40,000 ft Winds

METAR

EPMO 212200Z 07007KT CAVOK 09/06 Q1021

TAF

TAF EPMO 211730Z 2118/2218 08008KT CAVOK PROB40 TEMPO 2118/2121 -SHRA BKN035CB BECMG 2209/2212 15010KT PROB40 TEMPO 2209/2215 -SHRA SCT035TCU PROB30 TEMPO 2215/2218 TSRA BKN030CB

Frequencies

Tower 124.50 MHz INFO
Warning: Do not use this data for real-world aviation or navigation. No guarantee of current accuracy is given.